createdAt,value
2023-04-02T00:00:12.712Z,81.18
2023-04-02T00:03:04.047Z,80.96
2023-04-02T00:05:52.595Z,80.76
2023-04-02T00:08:25.262Z,80.61
2023-04-02T00:11:02.754Z,80.85
2023-04-02T00:13:37.315Z,80.73
2023-04-02T00:16:08.583Z,80.73
2023-04-02T00:18:42.844Z,80.73
2023-04-02T00:21:19.815Z,80.92
2023-04-02T00:23:48.003Z,80.72
2023-04-02T00:26:50.172Z,80.80
2023-04-02T00:29:19.871Z,80.83
2023-04-02T00:31:50.372Z,80.84
2023-04-02T00:34:23.076Z,80.91
2023-04-02T00:36:53.715Z,81.04
2023-04-02T00:39:28.637Z,80.81
2023-04-02T00:42:05.332Z,80.80
2023-04-02T00:44:42.952Z,80.73
2023-04-02T00:47:21.402Z,80.78
2023-04-02T00:50:12.537Z,80.79
2023-04-02T00:52:43.313Z,80.79
2023-04-02T00:55:14.507Z,80.81
2023-04-02T00:57:45.041Z,80.97
2023-04-02T01:00:29.397Z,80.86
2023-04-02T01:03:16.872Z,80.69
2023-04-02T01:06:03.748Z,80.73
2023-04-02T01:08:37.898Z,80.68
2023-04-02T01:12:13.970Z,80.64
2023-04-02T01:14:49.459Z,80.63
2023-04-02T01:17:33.062Z,80.53
2023-04-02T01:20:36.794Z,80.27
2023-04-02T01:23:17.187Z,80.32
2023-04-02T01:26:08.267Z,80.33
2023-04-02T01:29:02.758Z,80.25
2023-04-02T01:31:33.563Z,80.44
2023-04-02T01:34:03.904Z,80.01
2023-04-02T01:36:50.310Z,80.06
2023-04-02T01:39:27.080Z,79.88
2023-04-02T01:42:22.710Z,79.61
2023-04-02T01:44:53.947Z,79.73
2023-04-02T01:47:28.924Z,79.35
2023-04-02T01:50:21.238Z,79.13
2023-04-02T01:52:56.271Z,79.12
2023-04-02T01:55:48.955Z,79.25
2023-04-02T01:58:26.341Z,79.28
2023-04-02T02:01:27.941Z,79.51
2023-04-02T02:03:56.326Z,79.33
2023-04-02T02:06:24.899Z,79.38
2023-04-02T02:09:05.146Z,79.25
2023-04-02T02:11:34.146Z,79.20
2023-04-02T02:14:12.198Z,79.32
2023-04-02T02:16:44.040Z,79.24
2023-04-02T02:19:31.336Z,79.16
2023-04-02T02:22:19.807Z,79.07
2023-04-02T02:24:49.085Z,79.07
2023-04-02T02:27:23.208Z,79.26
2023-04-02T02:29:55.626Z,79.12
2023-04-02T02:32:29.877Z,79.21
2023-04-02T02:35:11.415Z,79.12
2023-04-02T02:37:47.989Z,79.06
2023-04-02T02:40:27.703Z,79.24
2023-04-02T02:42:59.955Z,79.28
2023-04-02T02:45:34.119Z,79.43
2023-04-02T02:48:04.932Z,79.61
2023-04-02T02:50:33.976Z,79.63
2023-04-02T02:53:07.905Z,79.88
2023-04-02T02:55:37.651Z,79.81
2023-04-02T02:58:26.440Z,79.66
2023-04-02T03:01:01.872Z,79.85
2023-04-02T03:03:34.384Z,79.94
2023-04-02T03:06:08.618Z,80.02
2023-04-02T03:08:46.598Z,80.03
2023-04-02T03:11:35.356Z,79.72
2023-04-02T03:14:29.568Z,79.89
2023-04-02T03:17:21.790Z,80.10
2023-04-02T03:19:55.296Z,80.30
2023-04-02T03:22:41.631Z,80.02
2023-04-02T03:25:50.006Z,79.66
2023-04-02T03:28:27.505Z,79.51
2023-04-02T03:31:02.358Z,79.59
2023-04-02T03:33:36.528Z,79.53
2023-04-02T03:36:23.280Z,79.57
2023-04-02T03:39:00.419Z,79.49
2023-04-02T03:42:06.647Z,79.52
2023-04-02T03:44:39.604Z,79.33
2023-04-02T03:47:19.001Z,78.91
2023-04-02T03:50:11.862Z,78.75
2023-04-02T03:52:41.460Z,78.82
2023-04-02T03:55:20.931Z,78.88
2023-04-02T03:57:55.257Z,78.89
2023-04-02T04:00:37.316Z,78.66
2023-04-02T04:03:19.003Z,78.37
2023-04-02T04:05:57.623Z,78.47
2023-04-02T04:08:34.401Z,78.49
2023-04-02T04:11:09.274Z,78.63
2023-04-02T04:13:47.437Z,78.81
2023-04-02T04:16:26.578Z,78.96
2023-04-02T04:19:09.456Z,78.96
2023-04-02T04:21:37.816Z,79.19
2023-04-02T04:24:27.153Z,79.06
2023-04-02T04:27:21.718Z,79.27
2023-04-02T04:30:36.290Z,79.26
2023-04-02T04:33:26.159Z,79.22
2023-04-02T04:36:01.890Z,79.28
2023-04-02T04:38:39.192Z,79.41
2023-04-02T04:41:24.504Z,79.58
2023-04-02T04:44:18.430Z,79.75
2023-04-02T04:47:32.158Z,79.82
2023-04-02T04:50:14.705Z,79.55
2023-04-02T04:52:44.025Z,79.76
2023-04-02T04:55:45.851Z,79.97
2023-04-02T04:58:23.272Z,80.04
2023-04-02T05:00:55.631Z,80.04
2023-04-02T05:03:38.959Z,79.97
2023-04-02T05:06:39.124Z,79.85
2023-04-02T05:09:22.751Z,80.00
2023-04-02T05:12:07.888Z,79.79
2023-04-02T05:14:42.699Z,79.78
2023-04-02T05:17:21.796Z,79.55
2023-04-02T05:20:01.074Z,79.53
2023-04-02T05:22:40.202Z,78.96
2023-04-02T05:25:25.774Z,78.90
2023-04-02T05:28:00.516Z,78.98
2023-04-02T05:30:28.689Z,78.71
2023-04-02T05:33:00.655Z,78.70
2023-04-02T05:35:34.569Z,78.16
2023-04-02T05:38:06.727Z,78.11
2023-04-02T05:40:41.042Z,77.95
2023-04-02T05:43:15.045Z,77.62
2023-04-02T05:45:52.028Z,77.75
2023-04-02T05:48:28.241Z,79.00
2023-04-02T05:50:59.036Z,77.68
2023-04-02T05:53:36.946Z,77.41
2023-04-02T05:56:28.452Z,76.95
2023-04-02T05:59:11.670Z,76.80
2023-04-02T06:01:49.623Z,76.19
2023-04-02T06:04:34.745Z,75.04
2023-04-02T06:07:16.029Z,75.64
2023-04-02T06:10:24.808Z,75.69
2023-04-02T06:13:03.767Z,74.89
2023-04-02T06:15:37.680Z,74.02
2023-04-02T06:18:20.186Z,73.15
2023-04-02T06:20:49.481Z,73.15
2023-04-02T06:23:30.893Z,73.31
2023-04-02T06:26:00.789Z,73.61
2023-04-02T06:28:52.817Z,73.27
2023-04-02T06:31:25.414Z,72.41
2023-04-02T06:33:56.518Z,72.34
2023-04-02T06:36:27.267Z,72.03
2023-04-02T06:39:07.034Z,71.74
2023-04-02T06:41:35.491Z,71.39
2023-04-02T06:44:38.367Z,71.38
2023-04-02T06:47:24.474Z,71.54
2023-04-02T06:50:02.471Z,70.95
2023-04-02T06:52:40.481Z,70.65
2023-04-02T06:55:44.395Z,70.58
2023-04-02T06:58:14.692Z,70.49
2023-04-02T07:00:46.135Z,70.54
2023-04-02T07:03:22.123Z,70.44
2023-04-02T07:05:50.607Z,70.02
2023-04-02T07:08:18.887Z,69.61
2023-04-02T07:10:47.864Z,69.60
2023-04-02T07:13:18.857Z,69.62
2023-04-02T07:15:50.430Z,69.26
2023-04-02T07:18:42.197Z,68.99
2023-04-02T07:21:11.076Z,68.74
2023-04-02T07:23:39.655Z,68.76
2023-04-02T07:26:09.555Z,68.84
2023-04-02T07:28:37.532Z,68.73
2023-04-02T07:31:19.274Z,68.43
2023-04-02T07:33:47.373Z,67.01
2023-04-02T07:36:18.384Z,66.33
2023-04-02T07:38:46.976Z,66.07
2023-04-02T07:41:16.295Z,65.92
2023-04-02T07:43:44.495Z,65.14
2023-04-02T07:46:16.736Z,65.24
2023-04-02T07:48:45.333Z,63.88
2023-04-02T07:51:23.134Z,63.03
2023-04-02T07:53:55.662Z,62.59
2023-04-02T07:56:25.451Z,62.77
2023-04-02T07:58:53.505Z,63.24
2023-04-02T08:01:26.731Z,61.87
2023-04-02T08:03:56.690Z,61.62
2023-04-02T08:06:25.976Z,61.62
2023-04-02T08:08:54.382Z,61.21
2023-04-02T08:11:22.377Z,60.85
2023-04-02T08:13:50.732Z,61.50
2023-04-02T08:16:18.771Z,61.84
2023-04-02T08:18:47.978Z,61.77
2023-04-02T08:21:16.741Z,61.63
2023-04-02T08:23:45.354Z,61.97
2023-04-02T08:26:18.893Z,61.97
2023-04-02T08:28:47.145Z,61.97
2023-04-02T08:31:15.444Z,61.87
2023-04-02T08:33:43.701Z,62.38
2023-04-02T08:36:19.226Z,62.59
2023-04-02T08:38:47.611Z,62.89
2023-04-02T08:41:27.713Z,63.32
2023-04-02T08:44:16.321Z,63.63
2023-04-02T08:46:52.209Z,63.18
2023-04-02T08:49:32.402Z,63.29
2023-04-02T08:52:01.118Z,63.64
2023-04-02T08:54:34.338Z,63.49
2023-04-02T08:57:36.218Z,63.05
2023-04-02T09:00:10.338Z,63.28
2023-04-02T09:02:43.682Z,63.48
2023-04-02T09:05:23.927Z,63.57
2023-04-02T09:07:54.357Z,63.42
2023-04-02T09:10:31.863Z,62.82
2023-04-02T09:13:01.556Z,62.21
2023-04-02T09:15:36.117Z,61.88
2023-04-02T09:18:16.864Z,61.86
2023-04-02T09:20:46.131Z,61.86
2023-04-02T09:23:19.795Z,61.14
2023-04-02T09:26:03.605Z,60.73
2023-04-02T09:28:32.913Z,60.56
2023-04-02T09:31:27.099Z,59.89
2023-04-02T09:33:55.244Z,59.40
2023-04-02T09:36:26.770Z,59.56
2023-04-02T09:39:07.074Z,59.60
2023-04-02T09:41:37.168Z,59.85
2023-04-02T09:44:13.044Z,60.06
2023-04-02T09:47:23.215Z,60.04
2023-04-02T09:49:52.187Z,59.88
2023-04-02T09:52:26.763Z,60.14
2023-04-02T09:55:15.560Z,59.79
2023-04-02T09:57:44.068Z,59.80
2023-04-02T10:00:32.562Z,59.39
2023-04-02T10:03:23.402Z,59.45
2023-04-02T10:06:13.559Z,59.19
2023-04-02T10:08:44.107Z,59.47
2023-04-02T10:11:17.302Z,59.59
2023-04-02T10:14:01.439Z,59.67
2023-04-02T10:16:40.798Z,59.44
2023-04-02T10:19:26.578Z,58.94
2023-04-02T10:21:56.712Z,58.51
2023-04-02T10:24:28.331Z,57.48
2023-04-02T10:27:02.761Z,57.27
2023-04-02T10:29:39.954Z,57.23
2023-04-02T10:32:23.377Z,57.46
2023-04-02T10:35:03.373Z,57.11
2023-04-02T10:37:43.347Z,57.08
2023-04-02T10:40:17.481Z,56.90
2023-04-02T10:42:51.914Z,57.36
2023-04-02T10:45:42.602Z,57.24
2023-04-02T10:48:42.759Z,57.35
2023-04-02T10:51:28.534Z,56.71
2023-04-02T10:54:17.578Z,56.04
2023-04-02T10:56:51.059Z,56.19
2023-04-02T10:59:32.524Z,56.03
2023-04-02T11:02:04.056Z,56.07
2023-04-02T11:04:44.270Z,55.76
2023-04-02T11:07:23.667Z,55.75
2023-04-02T11:09:56.458Z,55.33
2023-04-02T11:12:46.698Z,54.53
2023-04-02T11:15:20.011Z,54.19
2023-04-02T11:17:48.710Z,53.28
2023-04-02T11:20:47.748Z,52.71
2023-04-02T11:23:19.144Z,51.26
2023-04-02T11:25:47.903Z,51.68
2023-04-02T11:28:25.786Z,51.63
2023-04-02T11:30:54.999Z,50.65
2023-04-02T11:33:39.184Z,49.79
2023-04-02T11:36:48.982Z,49.40
2023-04-02T11:39:54.114Z,47.54
2023-04-02T11:42:26.485Z,46.47
2023-04-02T11:44:55.687Z,46.76
2023-04-02T11:47:25.938Z,47.19
2023-04-02T11:50:04.401Z,47.80
2023-04-02T11:52:49.901Z,48.01
2023-04-02T11:55:25.242Z,48.18
2023-04-02T11:58:09.807Z,48.10
2023-04-02T12:01:18.617Z,48.36
2023-04-02T12:03:52.753Z,48.58
2023-04-02T12:06:55.109Z,49.05
2023-04-02T12:09:31.058Z,49.56
2023-04-02T12:12:02.219Z,50.09
2023-04-02T12:14:43.294Z,50.55
2023-04-02T12:17:31.715Z,50.23
2023-04-02T12:20:08.417Z,50.23
2023-04-02T12:22:41.293Z,50.52
2023-04-02T12:25:24.679Z,50.63
2023-04-02T12:28:20.136Z,51.25
2023-04-02T12:30:50.045Z,51.86
2023-04-02T12:33:30.859Z,51.94
2023-04-02T12:36:01.448Z,51.33
2023-04-02T12:38:33.508Z,50.83
2023-04-02T12:41:05.401Z,50.40
2023-04-02T12:43:34.595Z,50.04
2023-04-02T12:46:05.835Z,50.08
2023-04-02T12:48:35.440Z,49.81
2023-04-02T12:51:04.711Z,49.95
2023-04-02T12:53:41.486Z,50.33
2023-04-02T12:56:21.451Z,50.10
2023-04-02T12:58:55.743Z,50.17
2023-04-02T13:01:27.729Z,50.51
2023-04-02T13:04:01.929Z,50.68
2023-04-02T13:06:33.364Z,51.08
2023-04-02T13:09:04.266Z,51.01
2023-04-02T13:11:39.969Z,51.30
2023-04-02T13:14:18.412Z,51.38
2023-04-02T13:16:47.030Z,51.06
2023-04-02T13:19:17.808Z,51.19
2023-04-02T13:21:46.193Z,51.12
2023-04-02T13:24:18.561Z,51.58
2023-04-02T13:26:49.646Z,51.36
2023-04-02T13:29:17.974Z,51.26
2023-04-02T13:31:46.252Z,51.75
2023-04-02T13:34:14.908Z,52.23
2023-04-02T13:36:42.904Z,52.20
2023-04-02T13:39:11.178Z,52.22
2023-04-02T13:41:48.665Z,52.44
2023-04-02T13:44:29.398Z,52.82
2023-04-02T13:46:58.730Z,52.89
2023-04-02T13:49:27.869Z,52.96
2023-04-02T13:51:59.195Z,53.18
2023-04-02T13:54:51.523Z,53.52
2023-04-02T13:57:19.531Z,53.57
2023-04-02T13:59:47.427Z,53.41
2023-04-02T14:02:18.890Z,53.22
2023-04-02T14:04:51.113Z,52.98
2023-04-02T14:07:57.716Z,53.15
2023-04-02T14:10:44.029Z,52.75
2023-04-02T14:13:31.163Z,53.00
2023-04-02T14:15:59.116Z,53.09
2023-04-02T14:18:33.137Z,52.51
2023-04-02T14:21:19.734Z,52.62
2023-04-02T14:24:04.708Z,52.75
2023-04-02T14:27:08.207Z,52.84
2023-04-02T14:29:45.594Z,52.52
2023-04-02T14:32:44.752Z,52.31
2023-04-02T14:35:28.348Z,52.41
2023-04-02T14:38:24.161Z,52.44
2023-04-02T14:40:55.089Z,52.87
2023-04-02T14:43:45.378Z,53.00
2023-04-02T14:46:13.918Z,53.35
2023-04-02T14:48:54.490Z,53.56
2023-04-02T14:51:40.929Z,53.79
2023-04-02T14:54:12.887Z,53.93
2023-04-02T14:57:12.931Z,54.03
2023-04-02T14:59:59.727Z,54.03
2023-04-02T15:02:47.580Z,53.79
2023-04-02T15:05:21.354Z,53.60
2023-04-02T15:07:56.688Z,53.72
2023-04-02T15:10:34.698Z,53.97
2023-04-02T15:13:08.226Z,54.27
2023-04-02T15:15:46.958Z,54.55
2023-04-02T15:18:17.436Z,54.68
2023-04-02T15:21:20.083Z,54.58
2023-04-02T15:23:51.124Z,54.52
2023-04-02T15:26:31.440Z,54.14
2023-04-02T15:29:25.850Z,53.96
2023-04-02T15:32:04.418Z,54.15
2023-04-02T15:34:39.254Z,54.25
2023-04-02T15:37:16.941Z,54.21
2023-04-02T15:40:07.005Z,54.55
2023-04-02T15:42:41.186Z,54.82
2023-04-02T15:45:12.189Z,54.90
2023-04-02T15:47:53.834Z,55.04
2023-04-02T15:50:46.431Z,55.33
2023-04-02T15:53:43.676Z,55.52
2023-04-02T15:56:39.189Z,55.63
2023-04-02T15:59:10.134Z,55.62
2023-04-02T16:02:10.426Z,55.73
2023-04-02T16:04:53.885Z,55.85
2023-04-02T16:07:25.147Z,56.01
2023-04-02T16:10:05.717Z,56.21
2023-04-02T16:12:37.045Z,56.33
2023-04-02T16:15:31.753Z,56.48
2023-04-02T16:18:18.447Z,56.65
2023-04-02T16:20:48.790Z,56.76
2023-04-02T16:23:22.678Z,57.02
2023-04-02T16:26:10.822Z,57.25
2023-04-02T16:29:16.370Z,57.59
2023-04-02T16:31:57.045Z,57.70
2023-04-02T16:35:05.027Z,57.63
2023-04-02T16:38:36.203Z,57.53
2023-04-02T16:41:18.060Z,57.77
2023-04-02T16:43:59.361Z,57.99
2023-04-02T16:46:46.137Z,58.16
2023-04-02T16:49:46.203Z,58.26
2023-04-02T16:52:39.588Z,58.46
2023-04-02T16:55:26.364Z,58.57
2023-04-02T16:58:20.142Z,58.82
2023-04-02T17:01:11.845Z,58.96
2023-04-02T17:03:58.633Z,59.09
2023-04-02T17:06:42.406Z,59.55
2023-04-02T17:09:33.014Z,59.95
2023-04-02T17:12:36.716Z,60.62
2023-04-02T17:15:32.542Z,60.82
2023-04-02T17:18:02.550Z,61.12
2023-04-02T17:20:31.333Z,60.88
2023-04-02T17:22:59.608Z,60.66
2023-04-02T17:25:34.108Z,60.62
2023-04-02T17:28:03.233Z,60.55
2023-04-02T17:30:31.311Z,60.62
2023-04-02T17:32:59.418Z,60.77
2023-04-02T17:35:53.598Z,60.63
2023-04-02T17:38:31.051Z,60.98
2023-04-02T17:41:02.101Z,61.95
2023-04-02T17:44:11.849Z,62.26
2023-04-02T17:47:05.404Z,62.64
2023-04-02T17:50:17.706Z,63.00
2023-04-02T17:52:57.333Z,62.87
2023-04-02T17:55:40.594Z,62.69
2023-04-02T17:58:46.328Z,62.42
2023-04-02T18:01:45.323Z,62.34
2023-04-02T18:04:32.243Z,62.49
2023-04-02T18:07:18.849Z,63.01
2023-04-02T18:09:55.734Z,64.13
2023-04-02T18:12:41.297Z,66.21
2023-04-02T18:15:09.283Z,67.23
2023-04-02T18:18:06.015Z,66.85
2023-04-02T18:20:46.697Z,66.88
2023-04-02T18:23:33.794Z,67.16
2023-04-02T18:26:13.855Z,67.26
2023-04-02T18:28:53.000Z,67.34
2023-04-02T18:31:56.175Z,67.90
2023-04-02T18:34:37.590Z,68.47
2023-04-02T18:37:09.114Z,68.60
2023-04-02T18:39:57.586Z,68.66
2023-04-02T18:42:53.675Z,69.54
2023-04-02T18:45:24.733Z,70.31
2023-04-02T18:48:14.303Z,70.57
2023-04-02T18:50:46.263Z,70.85
2023-04-02T18:53:18.127Z,71.04
2023-04-02T18:56:08.240Z,71.21
2023-04-02T18:58:52.864Z,71.74
2023-04-02T19:04:22.621Z,72.21
2023-04-02T19:07:01.722Z,72.29
2023-04-02T19:09:41.202Z,72.30
2023-04-02T19:12:23.647Z,72.45
2023-04-02T19:14:52.536Z,72.64
2023-04-02T19:17:38.766Z,72.35
2023-04-02T19:20:25.975Z,72.81
2023-04-02T19:23:18.106Z,72.92
2023-04-02T19:26:05.104Z,73.13
2023-04-02T19:28:59.513Z,73.37
2023-04-02T19:31:48.952Z,73.50
2023-04-02T19:34:35.701Z,73.76
2023-04-02T19:37:15.712Z,73.96
2023-04-02T19:40:05.422Z,73.51
2023-04-02T19:42:43.680Z,73.61
2023-04-02T19:45:25.323Z,74.26
2023-04-02T19:47:54.244Z,73.99
2023-04-02T19:50:22.894Z,73.96
2023-04-02T19:52:51.245Z,76.00
2023-04-02T19:55:19.342Z,77.49
2023-04-02T19:57:47.416Z,78.34
2023-04-02T20:00:16.306Z,78.54
2023-04-02T20:02:44.505Z,78.19
2023-04-02T20:05:13.572Z,77.56
2023-04-02T20:07:41.643Z,77.03
2023-04-02T20:10:10.535Z,77.04
2023-04-02T20:12:38.474Z,77.63
2023-04-02T20:15:07.592Z,77.50
2023-04-02T20:17:35.795Z,77.32
2023-04-02T20:20:04.652Z,76.89
2023-04-02T20:22:32.633Z,76.67
2023-04-02T20:25:00.913Z,76.94
2023-04-02T20:27:28.971Z,77.04
2023-04-02T20:29:57.133Z,77.26
2023-04-02T20:32:25.371Z,76.98
2023-04-02T20:34:54.349Z,77.09
2023-04-02T20:37:22.754Z,77.09
2023-04-02T20:39:51.099Z,77.04
2023-04-02T20:42:19.541Z,77.24
2023-04-02T20:44:47.623Z,77.56
2023-04-02T20:47:16.519Z,78.18
2023-04-02T20:49:44.581Z,78.50
2023-04-02T20:52:12.547Z,78.41
2023-04-02T20:54:40.847Z,78.76
2023-04-02T20:57:09.161Z,79.27
2023-04-02T20:59:37.376Z,79.30
2023-04-02T21:02:05.657Z,78.91
2023-04-02T21:04:34.171Z,78.61
2023-04-02T21:07:02.203Z,78.23
2023-04-02T21:09:30.267Z,78.32
2023-04-02T21:11:58.261Z,78.55
2023-04-02T21:14:26.422Z,78.73
2023-04-02T21:16:54.495Z,78.94
2023-04-02T21:19:22.751Z,79.47
2023-04-02T21:21:51.150Z,79.49
2023-04-02T21:24:19.410Z,79.80
2023-04-02T21:26:47.709Z,80.29
2023-04-02T21:29:16.072Z,80.38
2023-04-02T21:31:44.229Z,80.30
2023-04-02T21:34:15.650Z,80.30
2023-04-02T21:36:46.050Z,80.28
2023-04-02T21:39:20.655Z,80.15
2023-04-02T21:41:50.941Z,80.36
2023-04-02T21:44:21.689Z,80.18
2023-04-02T21:46:51.922Z,80.38
2023-04-02T21:49:23.146Z,80.66
2023-04-02T21:51:52.180Z,80.61
2023-04-02T21:54:20.159Z,81.06
2023-04-02T21:56:48.646Z,82.18
2023-04-02T21:59:17.901Z,81.64
2023-04-02T22:01:49.097Z,81.55
2023-04-02T22:04:25.566Z,82.20
2023-04-02T22:06:54.208Z,82.35
2023-04-02T22:09:24.398Z,82.67
2023-04-02T22:11:55.328Z,82.54
2023-04-02T22:14:23.565Z,82.29
2023-04-02T22:16:52.296Z,82.58
2023-04-02T22:19:21.497Z,82.79
2023-04-02T22:21:49.895Z,82.11
2023-04-02T22:24:19.214Z,82.31
2023-04-02T22:26:47.257Z,82.39
2023-04-02T22:29:16.654Z,82.48
2023-04-02T22:31:44.828Z,82.57
2023-04-02T22:34:12.835Z,82.92
2023-04-02T22:36:41.379Z,82.79
2023-04-02T22:39:12.094Z,82.84
2023-04-02T22:41:40.489Z,82.80
2023-04-02T22:44:15.535Z,82.61
2023-04-02T22:46:43.795Z,82.78
2023-04-02T22:49:11.878Z,82.75
2023-04-02T22:51:40.244Z,82.59
2023-04-02T22:54:08.416Z,82.64
2023-04-02T22:56:37.758Z,82.56
2023-04-02T22:59:06.010Z,82.55
2023-04-02T23:01:36.101Z,82.61
2023-04-02T23:04:05.462Z,82.54
2023-04-02T23:06:33.576Z,82.88
2023-04-02T23:09:01.573Z,82.97
2023-04-02T23:11:29.723Z,82.82
2023-04-02T23:13:58.410Z,82.48
2023-04-02T23:16:29.032Z,82.46
2023-04-02T23:18:57.856Z,82.25
2023-04-02T23:21:26.534Z,82.23
2023-04-02T23:23:54.786Z,82.31
2023-04-02T23:26:27.246Z,82.26
2023-04-02T23:28:55.840Z,82.42
2023-04-02T23:31:25.304Z,82.64
2023-04-02T23:33:53.836Z,82.72
2023-04-02T23:36:23.608Z,82.91
2023-04-02T23:38:56.998Z,83.06
2023-04-02T23:41:27.198Z,83.47
2023-04-02T23:43:56.766Z,83.63
2023-04-02T23:46:26.010Z,84.09
2023-04-02T23:48:55.839Z,84.23
2023-04-02T23:51:24.792Z,84.02
2023-04-02T23:53:55.515Z,84.23
2023-04-02T23:56:24.688Z,83.97
2023-04-02T23:58:52.877Z,83.49
